Airfield :
LOGIN :

Register | Disclaimer

   EN    FR    IT 

 










Legend :    VFR   Marginal VFR   IFR   Intensive IFR   Very Intensive IFR
Visi :
Ceiling :
>= 8 km
>= 3000ft
5 to 8 km
1000 to 3000 ft
1500m to 5 km
500 to 1000 ft
800 to 1500m
200 to 500 ft
< 800m
< 200 ft
Symbols :   Thunderstorms  Fog  Heavy snow  Heavy precipitations  Wind > 20 kt
SIGMETs :     Misc.  Thunderstorms  Icing  Turbulence  Mountain Waves  Volcanic Ashes






- Airport Elevation : 84 ft
- IATA code : EVE


ENEV - Harstad/Narvik , Evenes

CURRENT METAR :
  • 251950Z 19008KT 9999 BKN068 16/04 Q1003 RMK WIND 1400FT 18014KT

EXPIRED METARs :
  • 251920Z 17009KT 9999 BKN068 16/04 Q1003 RMK WIND 1400FT 18015KT
  • 251850Z 21008KT 190V250 9999 SCT066 BKN084 15/05 Q1003 RMK WIND 1400FT 20012KT
  • 251820Z 24003KT 180V290 9999 BKN074 15/04 Q1002 RMK WIND 1400FT 17013KT
  • 251750Z 22004KT 160V310 9999 BKN074 15/04 Q1002 RMK WIND 1400FT 19012KT
  • 251720Z 19015KT 9999 -RA BKN068 16/05 Q1002 RMK WIND 1400FT 18017KT

TAF TAF ENEV
Valid from the 25 at 18:00 until the 26 at 18:00 UTC


2518/2618 17009KT 9999 -RA FEW040 BKN060
TEMPO 2608/2618 RA



MET'MAP, your aeronautical weather chart ! - Copyright ORBIFLY December 2007 - Disclaimer

ORBIFLY MET'MAP TEAM :

Programming & Development : Alexandra Zaïnal
Original concept : Baudouin d'Aumeries
Technical & hardware support : Manuel Goepfert
Assistance : Marc-Olivier Méhu

Contact : metmap@orbifly.com




SOURCES & CREDITS :

   NOAA